createdAt,value
2023-02-12T00:00:01.290Z,7.80
2023-02-12T00:02:28.452Z,7.80
2023-02-12T00:04:55.162Z,7.80
2023-02-12T00:07:21.885Z,7.70
2023-02-12T00:09:48.553Z,7.70
2023-02-12T00:12:15.241Z,7.70
2023-02-12T00:14:42.130Z,7.70
2023-02-12T00:17:08.833Z,7.70
2023-02-12T00:19:35.593Z,7.70
2023-02-12T00:22:02.508Z,7.70
2023-02-12T00:24:29.272Z,7.70
2023-02-12T00:26:55.988Z,7.60
2023-02-12T00:29:22.660Z,7.70
2023-02-12T00:31:49.410Z,7.70
2023-02-12T00:34:16.210Z,7.70
2023-02-12T00:36:42.855Z,7.70
2023-02-12T00:39:10.961Z,7.70
2023-02-12T00:41:37.704Z,7.70
2023-02-12T00:44:04.766Z,7.70
2023-02-12T00:46:31.502Z,7.70
2023-02-12T00:48:58.238Z,7.60
2023-02-12T00:51:24.892Z,7.70
2023-02-12T00:53:51.623Z,7.60
2023-02-12T00:56:18.391Z,7.70
2023-02-12T00:58:45.125Z,7.70
2023-02-12T01:01:11.900Z,7.70
2023-02-12T01:03:38.696Z,7.70
2023-02-12T01:06:06.271Z,7.70
2023-02-12T01:08:32.997Z,7.70
2023-02-12T01:11:02.274Z,7.70
2023-02-12T01:13:30.560Z,7.60
2023-02-12T01:16:03.376Z,7.60
2023-02-12T01:18:30.155Z,7.50
2023-02-12T01:20:58.855Z,7.60
2023-02-12T01:23:25.879Z,7.60
2023-02-12T01:25:53.092Z,7.60
2023-02-12T01:28:20.129Z,7.60
2023-02-12T01:30:46.983Z,7.60
2023-02-12T01:33:13.671Z,7.60
2023-02-12T01:35:40.434Z,7.60
2023-02-12T01:38:07.113Z,7.60
2023-02-12T01:40:33.870Z,7.60
2023-02-12T01:43:02.914Z,7.70
2023-02-12T01:45:45.290Z,7.60
2023-02-12T01:48:14.202Z,7.60
2023-02-12T01:50:43.100Z,7.60
2023-02-12T01:53:10.163Z,7.60
2023-02-12T01:55:36.875Z,7.60
2023-02-12T01:58:05.296Z,7.70
2023-02-12T02:00:33.132Z,7.70
2023-02-12T02:03:02.010Z,7.70
2023-02-12T02:05:55.836Z,7.70
2023-02-12T02:08:23.521Z,7.70
2023-02-12T02:10:50.319Z,7.70
2023-02-12T02:13:36.038Z,7.70
2023-02-12T02:16:26.494Z,7.70
2023-02-12T02:19:02.689Z,7.80
2023-02-12T02:22:01.058Z,7.80
2023-02-12T02:24:39.811Z,7.70
2023-02-12T02:27:18.843Z,7.70
2023-02-12T02:30:30.172Z,7.70
2023-02-12T02:33:22.005Z,7.70
2023-02-12T02:36:07.304Z,7.70
2023-02-12T02:38:50.383Z,7.70
2023-02-12T02:42:07.075Z,7.70
2023-02-12T02:44:50.707Z,7.70
2023-02-12T02:47:21.372Z,7.70
2023-02-12T02:49:58.899Z,7.70
2023-02-12T02:52:40.382Z,7.70
2023-02-12T02:55:09.648Z,7.80
2023-02-12T02:57:46.092Z,7.80
2023-02-12T03:00:27.782Z,7.70
2023-02-12T03:03:06.410Z,7.70
2023-02-12T03:05:39.917Z,7.70
2023-02-12T03:08:23.917Z,7.70
2023-02-12T03:11:04.067Z,7.70
2023-02-12T03:13:37.447Z,7.70
2023-02-12T03:16:14.431Z,7.70
2023-02-12T03:18:50.075Z,7.70
2023-02-12T03:21:20.388Z,7.70
2023-02-12T03:23:54.872Z,7.70
2023-02-12T03:26:50.878Z,7.70
2023-02-12T03:29:17.689Z,7.70
2023-02-12T03:32:02.650Z,7.70
2023-02-12T03:34:38.253Z,7.70
2023-02-12T03:37:34.422Z,7.70
2023-02-12T03:40:04.285Z,7.60
2023-02-12T03:42:42.010Z,7.50
2023-02-12T03:45:29.511Z,7.50
2023-02-12T03:48:11.035Z,7.50
2023-02-12T03:51:03.842Z,7.50
2023-02-12T03:53:32.393Z,7.50
2023-02-12T03:56:05.305Z,7.40
2023-02-12T03:58:35.566Z,7.40
2023-02-12T04:01:03.865Z,7.40
2023-02-12T04:03:31.636Z,7.40
2023-02-12T04:05:58.445Z,7.40
2023-02-12T04:08:27.134Z,7.40
2023-02-12T04:11:10.074Z,7.50
2023-02-12T04:13:48.374Z,7.40
2023-02-12T04:16:41.606Z,7.40
2023-02-12T04:19:13.056Z,7.40
2023-02-12T04:21:55.173Z,7.40
2023-02-12T04:24:51.642Z,7.50
2023-02-12T04:27:34.953Z,7.40
2023-02-12T04:30:20.679Z,7.40
2023-02-12T04:32:59.476Z,7.40
2023-02-12T04:35:43.571Z,7.40
2023-02-12T04:38:30.782Z,7.30
2023-02-12T04:40:58.915Z,7.40
2023-02-12T04:43:36.514Z,7.40
2023-02-12T04:46:06.380Z,7.50
2023-02-12T04:48:34.578Z,7.40
2023-02-12T04:51:01.725Z,7.40
2023-02-12T04:53:28.496Z,7.40
2023-02-12T04:55:55.596Z,7.40
2023-02-12T04:58:22.476Z,7.40
2023-02-12T05:00:49.154Z,7.40
2023-02-12T05:03:15.835Z,7.50
2023-02-12T05:05:42.612Z,7.40
2023-02-12T05:08:09.292Z,7.40
2023-02-12T05:10:36.002Z,7.30
2023-02-12T05:13:02.701Z,7.30
2023-02-12T05:15:29.455Z,7.40
2023-02-12T05:17:56.143Z,7.30
2023-02-12T05:20:22.865Z,7.40
2023-02-12T05:22:53.229Z,7.40
2023-02-12T05:25:20.129Z,7.50
2023-02-12T05:27:46.846Z,7.50
2023-02-12T05:30:13.769Z,7.50
2023-02-12T05:32:40.488Z,7.50
2023-02-12T05:35:07.927Z,7.40
2023-02-12T05:37:36.259Z,7.40
2023-02-12T05:40:07.114Z,7.40
2023-02-12T05:42:33.861Z,7.40
2023-02-12T05:45:00.573Z,7.40
2023-02-12T05:47:27.751Z,7.40
2023-02-12T05:49:54.443Z,7.50
2023-02-12T05:52:21.136Z,7.30
2023-02-12T05:54:50.127Z,7.30
2023-02-12T05:57:16.816Z,7.30
2023-02-12T05:59:43.490Z,7.30
2023-02-12T06:02:10.193Z,7.30
2023-02-12T06:04:36.885Z,7.30
2023-02-12T06:07:03.639Z,7.30
2023-02-12T06:09:30.342Z,7.30
2023-02-12T06:11:56.991Z,7.30
2023-02-12T06:14:23.698Z,7.40
2023-02-12T06:16:51.700Z,7.40
2023-02-12T06:19:19.707Z,7.40
2023-02-12T06:21:47.290Z,7.40
2023-02-12T06:24:16.014Z,7.40
2023-02-12T06:26:43.239Z,7.40
2023-02-12T06:29:10.183Z,7.40
2023-02-12T06:31:37.909Z,7.50
2023-02-12T06:34:07.267Z,7.40
2023-02-12T06:36:36.297Z,7.30
2023-02-12T06:39:03.620Z,7.30
2023-02-12T06:41:30.656Z,7.30
2023-02-12T06:43:57.744Z,7.30
2023-02-12T06:46:24.849Z,7.30
2023-02-12T06:48:56.638Z,7.30
2023-02-12T06:51:23.980Z,7.30
2023-02-12T06:53:52.140Z,7.20
2023-02-12T06:56:19.660Z,7.30
2023-02-12T06:58:51.752Z,7.20
2023-02-12T07:01:21.563Z,7.30
2023-02-12T07:03:50.773Z,7.30
2023-02-12T07:06:18.364Z,7.40
2023-02-12T07:08:45.151Z,7.40
2023-02-12T07:11:12.052Z,7.40
2023-02-12T07:13:40.151Z,7.50
2023-02-12T07:16:08.712Z,7.50
2023-02-12T07:18:36.267Z,7.50
2023-02-12T07:21:04.562Z,7.50
2023-02-12T07:23:31.611Z,7.50
2023-02-12T07:26:00.049Z,7.50
2023-02-12T07:28:27.440Z,7.50
2023-02-12T07:30:54.641Z,7.50
2023-02-12T07:33:21.392Z,7.50
2023-02-12T07:35:48.069Z,7.60
2023-02-12T07:38:15.098Z,7.60
2023-02-12T07:40:41.840Z,7.60
2023-02-12T07:43:08.597Z,7.60
2023-02-12T07:45:35.256Z,7.60
2023-02-12T07:48:02.016Z,7.60
2023-02-12T07:50:28.828Z,7.60
2023-02-12T07:52:55.513Z,7.70
2023-02-12T07:55:22.454Z,7.70
2023-02-12T07:57:49.181Z,7.70
2023-02-12T08:00:16.414Z,7.90
2023-02-12T08:02:43.170Z,8.00
2023-02-12T08:05:09.916Z,8.00
2023-02-12T08:07:36.656Z,8.00
2023-02-12T08:10:03.508Z,8.10
2023-02-12T08:12:30.270Z,8.10
2023-02-12T08:14:57.002Z,8.10
2023-02-12T08:17:23.683Z,8.10
2023-02-12T08:19:50.403Z,8.20
2023-02-12T08:22:17.091Z,8.20
2023-02-12T08:24:43.757Z,8.30
2023-02-12T08:27:10.446Z,8.20
2023-02-12T08:29:37.248Z,8.20
2023-02-12T08:32:06.279Z,8.30
2023-02-12T08:34:34.856Z,8.30
2023-02-12T08:37:02.170Z,8.30
2023-02-12T08:39:29.987Z,8.30
2023-02-12T08:41:58.280Z,8.40
2023-02-12T08:44:25.543Z,8.40
2023-02-12T08:46:55.519Z,8.30
2023-02-12T08:49:27.903Z,8.30
2023-02-12T08:51:57.620Z,8.30
2023-02-12T08:54:27.074Z,8.40
2023-02-12T08:57:09.704Z,8.30
2023-02-12T08:59:36.436Z,8.40
2023-02-12T09:02:08.576Z,8.40
2023-02-12T09:04:35.996Z,8.50
2023-02-12T09:07:04.859Z,8.50
2023-02-12T09:09:31.592Z,8.50
2023-02-12T09:11:58.280Z,8.60
2023-02-12T09:14:25.364Z,8.70
2023-02-12T09:16:53.258Z,8.90
2023-02-12T09:19:20.176Z,9.00
2023-02-12T09:21:53.921Z,9.00
2023-02-12T09:24:21.888Z,8.90
2023-02-12T09:26:48.584Z,8.80
2023-02-12T09:29:15.890Z,8.90
2023-02-12T09:31:42.691Z,9.00
2023-02-12T09:34:09.565Z,9.00
2023-02-12T09:36:36.714Z,9.10
2023-02-12T09:39:05.468Z,9.00
2023-02-12T09:41:53.726Z,9.10
2023-02-12T09:44:36.244Z,9.10
2023-02-12T09:47:13.740Z,9.20
2023-02-12T09:50:04.832Z,9.20
2023-02-12T09:52:31.670Z,9.30
2023-02-12T09:54:59.114Z,9.30
2023-02-12T09:57:36.225Z,9.20
2023-02-12T10:00:10.152Z,9.30
2023-02-12T10:02:38.651Z,9.30
2023-02-12T10:05:14.581Z,9.30
2023-02-12T10:07:44.141Z,9.40
2023-02-12T10:10:38.266Z,9.50
2023-02-12T10:13:34.126Z,9.50
2023-02-12T10:16:32.788Z,9.40
2023-02-12T10:19:28.014Z,9.40
2023-02-12T10:22:00.529Z,9.50
2023-02-12T10:24:49.241Z,9.50
2023-02-12T10:27:20.451Z,9.40
2023-02-12T10:29:48.396Z,9.30
2023-02-12T10:32:35.142Z,9.30
2023-02-12T10:35:12.508Z,9.20
2023-02-12T10:37:51.723Z,8.90
2023-02-12T10:40:28.415Z,8.70
2023-02-12T10:42:57.256Z,8.90
2023-02-12T10:45:36.147Z,8.90
2023-02-12T10:48:31.586Z,9.10
2023-02-12T10:51:07.301Z,9.10
2023-02-12T10:53:37.182Z,9.10
2023-02-12T10:56:13.945Z,9.10
2023-02-12T10:58:53.113Z,9.00
2023-02-12T11:01:34.973Z,9.00
2023-02-12T11:04:22.928Z,9.00
2023-02-12T11:07:07.951Z,9.00
2023-02-12T11:09:40.709Z,9.10
2023-02-12T11:12:31.235Z,9.10
2023-02-12T11:15:01.188Z,9.30
2023-02-12T11:17:37.349Z,9.50
2023-02-12T11:20:22.235Z,9.70
2023-02-12T11:22:56.916Z,9.70
2023-02-12T11:25:26.538Z,9.60
2023-02-12T11:28:01.131Z,9.60
2023-02-12T11:30:28.507Z,9.50
2023-02-12T11:32:55.376Z,9.40
2023-02-12T11:35:27.047Z,9.50
2023-02-12T11:37:57.761Z,9.40
2023-02-12T11:40:30.758Z,9.50
2023-02-12T11:43:05.809Z,9.40
2023-02-12T11:45:52.430Z,9.50
2023-02-12T11:48:25.096Z,9.50
2023-02-12T11:50:56.376Z,9.60
2023-02-12T11:53:47.068Z,9.50
2023-02-12T11:56:14.939Z,9.40
2023-02-12T11:58:42.114Z,9.40
2023-02-12T12:01:22.046Z,9.40
2023-02-12T12:04:08.709Z,9.40
2023-02-12T12:06:41.404Z,9.50
2023-02-12T12:09:17.756Z,9.60
2023-02-12T12:12:13.378Z,9.70
2023-02-12T12:15:09.852Z,9.80
2023-02-12T12:18:00.998Z,9.90
2023-02-12T12:20:31.966Z,10.50
2023-02-12T12:23:15.989Z,10.60
2023-02-12T12:25:49.237Z,10.50
2023-02-12T12:28:29.078Z,10.60
2023-02-12T12:31:20.498Z,11.30
2023-02-12T12:34:10.971Z,11.50
2023-02-12T12:37:02.489Z,11.40
2023-02-12T12:39:41.335Z,11.30
2023-02-12T12:42:28.411Z,11.10
2023-02-12T12:45:05.964Z,11.10
2023-02-12T12:47:53.321Z,11.00
2023-02-12T12:50:48.739Z,11.00
2023-02-12T12:53:30.495Z,10.60
2023-02-12T12:56:34.492Z,10.40
2023-02-12T12:59:15.335Z,10.50
2023-02-12T13:02:12.816Z,10.30
2023-02-12T13:05:08.522Z,10.10
2023-02-12T13:08:03.242Z,10.10
2023-02-12T13:10:38.842Z,10.20
2023-02-12T13:13:28.365Z,10.60
2023-02-12T13:16:17.052Z,11.00
2023-02-12T13:19:04.721Z,11.70
2023-02-12T13:22:01.853Z,12.00
2023-02-12T13:24:45.150Z,12.20
2023-02-12T13:27:20.033Z,13.10
2023-02-12T13:29:53.645Z,14.20
2023-02-12T13:32:28.508Z,14.40
2023-02-12T13:34:57.337Z,14.50
2023-02-12T13:37:44.723Z,15.00
2023-02-12T13:40:22.026Z,15.30
2023-02-12T13:42:54.706Z,14.50
2023-02-12T13:45:51.357Z,14.20
2023-02-12T13:48:18.034Z,13.60
2023-02-12T13:51:10.731Z,13.10
2023-02-12T13:53:56.221Z,13.50
2023-02-12T13:56:29.156Z,14.20
2023-02-12T13:59:00.190Z,14.10
2023-02-12T14:01:46.917Z,14.00
2023-02-12T14:04:21.886Z,13.50
2023-02-12T14:06:58.731Z,13.40
2023-02-12T14:09:33.881Z,13.10
2023-02-12T14:12:02.180Z,12.90
2023-02-12T14:14:36.309Z,12.60
2023-02-12T14:17:30.973Z,12.40
2023-02-12T14:20:27.053Z,12.10
2023-02-12T14:23:00.442Z,11.80
2023-02-12T14:25:58.356Z,11.70
2023-02-12T14:28:57.757Z,11.40
2023-02-12T14:31:27.330Z,11.10
2023-02-12T14:34:16.116Z,10.90
2023-02-12T14:36:44.859Z,10.90
2023-02-12T14:39:20.925Z,10.90
2023-02-12T14:41:57.174Z,10.90
2023-02-12T14:44:23.834Z,10.90
2023-02-12T14:46:54.638Z,10.90
2023-02-12T14:49:42.241Z,10.90
2023-02-12T14:52:17.826Z,10.90
2023-02-12T14:54:51.338Z,10.90
2023-02-12T14:57:24.228Z,10.90
2023-02-12T14:59:54.811Z,10.80
2023-02-12T15:02:30.101Z,10.90
2023-02-12T15:05:02.332Z,10.90
2023-02-12T15:07:45.917Z,10.90
2023-02-12T15:10:32.816Z,10.80
2023-02-12T15:13:24.777Z,10.70
2023-02-12T15:16:15.399Z,10.70
2023-02-12T15:18:52.329Z,10.70
2023-02-12T15:21:31.560Z,10.70
2023-02-12T15:24:22.648Z,10.60
2023-02-12T15:26:52.078Z,10.40
2023-02-12T15:29:30.889Z,10.40
2023-02-12T15:32:00.736Z,10.40
2023-02-12T15:34:33.258Z,10.40
2023-02-12T15:37:03.647Z,10.30
2023-02-12T15:39:41.232Z,10.30
2023-02-12T15:42:24.477Z,10.30
2023-02-12T15:44:51.346Z,10.30
2023-02-12T15:47:25.072Z,10.30
2023-02-12T15:49:59.401Z,10.20
2023-02-12T15:52:35.970Z,10.20
2023-02-12T15:55:06.572Z,10.20
2023-02-12T15:57:33.786Z,10.10
2023-02-12T16:00:10.945Z,10.00
2023-02-12T16:02:37.590Z,10.00
2023-02-12T16:05:06.506Z,9.90
2023-02-12T16:07:36.890Z,9.80
2023-02-12T16:10:05.338Z,9.70
2023-02-12T16:12:34.446Z,9.70
2023-02-12T16:15:01.751Z,9.70
2023-02-12T16:17:32.004Z,9.70
2023-02-12T16:19:59.928Z,9.70
2023-02-12T16:22:33.585Z,9.70
2023-02-12T16:25:01.310Z,9.70
2023-02-12T16:27:34.233Z,9.70
2023-02-12T16:30:30.401Z,9.70
2023-02-12T16:32:57.949Z,9.60
2023-02-12T16:35:28.688Z,9.60
2023-02-12T16:38:02.304Z,9.60
2023-02-12T16:40:35.118Z,9.60
2023-02-12T16:43:23.105Z,9.60
2023-02-12T16:45:50.387Z,9.50
2023-02-12T16:48:24.749Z,9.50
2023-02-12T16:50:57.422Z,9.50
2023-02-12T16:53:30.147Z,9.50
2023-02-12T16:55:57.959Z,9.60
2023-02-12T16:58:26.335Z,9.50
2023-02-12T17:00:55.165Z,9.50
2023-02-12T17:03:22.265Z,9.50
2023-02-12T17:05:49.424Z,9.40
2023-02-12T17:08:18.899Z,9.40
2023-02-12T17:10:45.756Z,9.40
2023-02-12T17:13:12.514Z,9.40
2023-02-12T17:15:50.589Z,9.40
2023-02-12T17:18:18.243Z,9.40
2023-02-12T17:20:49.128Z,9.40
2023-02-12T17:23:15.911Z,9.30
2023-02-12T17:25:42.639Z,9.40
2023-02-12T17:28:09.373Z,9.30
2023-02-12T17:30:37.373Z,9.30
2023-02-12T17:33:04.328Z,9.30
2023-02-12T17:35:31.071Z,9.30
2023-02-12T17:37:57.795Z,9.30
2023-02-12T17:40:24.631Z,9.40
2023-02-12T17:42:51.419Z,9.30
2023-02-12T17:45:19.087Z,9.30
2023-02-12T17:47:46.489Z,9.40
2023-02-12T17:50:16.852Z,9.40
2023-02-12T17:52:44.050Z,9.30
2023-02-12T17:55:11.539Z,9.30
2023-02-12T17:57:39.214Z,9.20
2023-02-12T18:00:08.774Z,9.10
2023-02-12T18:02:35.898Z,9.00
2023-02-12T18:05:02.886Z,8.90
2023-02-12T18:07:32.429Z,8.90
2023-02-12T18:09:59.183Z,8.90
2023-02-12T18:12:26.394Z,8.90
2023-02-12T18:14:58.110Z,9.00
2023-02-12T18:17:24.762Z,9.00
2023-02-12T18:19:52.140Z,9.00
2023-02-12T18:22:18.852Z,9.00
2023-02-12T18:24:45.604Z,9.10
2023-02-12T18:27:13.289Z,9.10
2023-02-12T18:29:40.609Z,9.10
2023-02-12T18:32:07.856Z,9.10
2023-02-12T18:34:37.573Z,9.00
2023-02-12T18:37:04.238Z,9.00
2023-02-12T18:39:30.960Z,9.00
2023-02-12T18:41:57.753Z,9.00
2023-02-12T18:44:24.466Z,9.00
2023-02-12T18:46:51.235Z,8.90
2023-02-12T18:49:18.060Z,8.90
2023-02-12T18:51:44.767Z,8.90
2023-02-12T18:54:13.092Z,8.90
2023-02-12T18:56:43.583Z,8.90
2023-02-12T18:59:12.900Z,8.90
2023-02-12T19:01:40.087Z,8.90
2023-02-12T19:04:09.834Z,8.90
2023-02-12T19:06:41.908Z,8.90
2023-02-12T19:09:09.031Z,8.90
2023-02-12T19:11:36.201Z,8.90
2023-02-12T19:14:03.261Z,8.90
2023-02-12T19:16:30.355Z,8.90
2023-02-12T19:18:58.989Z,8.90
2023-02-12T19:21:26.292Z,9.00
2023-02-12T19:23:57.613Z,8.90
2023-02-12T19:26:25.484Z,8.90
2023-02-12T19:28:52.889Z,8.90
2023-02-12T19:31:22.971Z,8.90
2023-02-12T19:33:54.247Z,9.00
2023-02-12T19:36:21.381Z,8.90
2023-02-12T19:38:48.742Z,8.90
2023-02-12T19:41:18.306Z,8.90
2023-02-12T19:43:45.743Z,8.80
2023-02-12T19:46:15.753Z,8.80
2023-02-12T19:48:43.554Z,8.80
2023-02-12T19:51:18.199Z,8.70
2023-02-12T19:53:45.603Z,8.70
2023-02-12T19:56:12.859Z,8.80
2023-02-12T19:58:39.721Z,8.70
2023-02-12T20:01:15.841Z,8.70
2023-02-12T20:03:44.230Z,8.70
2023-02-12T20:06:16.528Z,8.60
2023-02-12T20:08:44.282Z,8.70
2023-02-12T20:11:15.925Z,8.70
2023-02-12T20:13:42.986Z,8.70
2023-02-12T20:16:15.949Z,8.70
2023-02-12T20:18:44.888Z,8.70
2023-02-12T20:21:23.755Z,8.70
2023-02-12T20:23:50.812Z,8.70
2023-02-12T20:26:19.880Z,8.60
2023-02-12T20:28:47.823Z,8.70
2023-02-12T20:31:23.206Z,8.70
2023-02-12T20:33:58.274Z,8.70
2023-02-12T20:36:25.911Z,8.70
2023-02-12T20:38:58.266Z,8.70
2023-02-12T20:41:26.641Z,8.70
2023-02-12T20:43:54.617Z,8.70
2023-02-12T20:46:23.349Z,8.70
2023-02-12T20:48:50.284Z,8.70
2023-02-12T20:51:23.561Z,8.70
2023-02-12T20:53:50.866Z,8.70
2023-02-12T20:56:21.262Z,8.60
2023-02-12T20:58:48.421Z,8.70
2023-02-12T21:01:17.294Z,8.70
2023-02-12T21:03:45.175Z,8.60
2023-02-12T21:06:11.961Z,8.70
2023-02-12T21:08:40.509Z,8.70
2023-02-12T21:11:17.036Z,8.70
2023-02-12T21:13:58.830Z,8.70
2023-02-12T21:16:31.864Z,8.70
2023-02-12T21:18:58.680Z,8.80
2023-02-12T21:21:32.059Z,8.80
2023-02-12T21:24:00.215Z,8.90
2023-02-12T21:26:29.691Z,8.90
2023-02-12T21:28:58.177Z,8.80
2023-02-12T21:31:28.633Z,8.80
2023-02-12T21:33:57.598Z,8.80
2023-02-12T21:36:27.514Z,8.80
2023-02-12T21:38:55.295Z,8.80
2023-02-12T21:41:27.683Z,8.80
2023-02-12T21:43:58.128Z,8.80
2023-02-12T21:46:26.184Z,8.80
2023-02-12T21:48:53.246Z,8.80
2023-02-12T21:51:21.596Z,8.80
2023-02-12T21:53:49.972Z,8.80
2023-02-12T21:56:17.421Z,8.70
2023-02-12T21:58:45.300Z,8.70
2023-02-12T22:01:15.444Z,8.80
2023-02-12T22:03:44.175Z,8.90
2023-02-12T22:06:12.385Z,8.90
2023-02-12T22:08:39.155Z,8.90
2023-02-12T22:11:07.916Z,8.90
2023-02-12T22:13:35.782Z,8.90
2023-02-12T22:16:09.888Z,8.80
2023-02-12T22:18:37.430Z,8.70
2023-02-12T22:21:06.085Z,8.80
2023-02-12T22:23:33.591Z,8.80
2023-02-12T22:26:16.050Z,8.80
2023-02-12T22:28:50.548Z,8.80
2023-02-12T22:31:26.151Z,8.80
2023-02-12T22:33:55.249Z,8.80
2023-02-12T22:36:22.125Z,8.80
2023-02-12T22:38:49.242Z,8.80
2023-02-12T22:41:16.820Z,8.90
2023-02-12T22:43:43.982Z,8.90
2023-02-12T22:46:12.714Z,8.90
2023-02-12T22:48:40.167Z,8.90
2023-02-12T22:51:20.117Z,8.80
2023-02-12T22:53:47.191Z,8.90
2023-02-12T22:56:13.938Z,8.80
2023-02-12T22:58:41.843Z,8.80
2023-02-12T23:01:17.688Z,8.70
2023-02-12T23:03:45.360Z,8.70
2023-02-12T23:06:14.717Z,8.70
2023-02-12T23:08:42.017Z,8.80
2023-02-12T23:11:08.810Z,8.90
2023-02-12T23:13:36.450Z,8.90
2023-02-12T23:16:03.890Z,8.90
2023-02-12T23:18:31.314Z,8.90
2023-02-12T23:20:58.480Z,8.90
2023-02-12T23:23:25.448Z,8.90
2023-02-12T23:25:54.291Z,9.00
2023-02-12T23:28:21.833Z,9.00
2023-02-12T23:30:50.218Z,9.00
2023-02-12T23:33:17.115Z,8.90
2023-02-12T23:35:44.954Z,9.00
2023-02-12T23:38:12.178Z,8.90
2023-02-12T23:40:39.386Z,8.90
2023-02-12T23:43:06.042Z,8.90
2023-02-12T23:45:32.753Z,8.90
2023-02-12T23:47:59.402Z,8.90
2023-02-12T23:50:26.136Z,8.90
2023-02-12T23:52:52.939Z,8.90
2023-02-12T23:55:20.234Z,8.90
2023-02-12T23:57:49.664Z,9.00
